Time;durP1;ratioP1;P1;durP2;ratioP2;P2;SDS_P1;SDS_P2;PMS_P1;PMS_P2;Temp;Humidity;BMP_temperature;BMP_pressure;BME280_temperature;BME280_humidity;BME280_pressure;Samples;Min_cycle;Max_cycle;Signal;HPM_P1;HPM_P2
2023/03/19 00:02:26;;;;;;;32.97;30.83;;;;;;;;;;5058040;28;20934;-84
2023/03/19 00:04:53;;;;;;;35.60;33.40;;;;;;;;;;5057983;28;20987;-84
2023/03/19 00:07:20;;;;;;;35.77;33.57;;;;;;;;;;5057792;28;20486;-84
2023/03/19 00:09:47;;;;;;;34.07;31.87;;;;;;;;;;5057514;28;20450;-84
2023/03/19 00:12:15;;;;;;;35.10;32.23;;;;;;;;;;5058233;28;20479;-84
2023/03/19 00:14:43;;;;;;;36.17;33.43;;;;;;;;;;5057629;28;20459;-83
2023/03/19 00:17:10;;;;;;;33.90;31.57;;;;;;;;;;5057392;28;20467;-84
2023/03/19 00:19:38;;;;;;;33.63;31.43;;;;;;;;;;5056827;28;21052;-83
2023/03/19 00:22:05;;;;;;;34.33;32.23;;;;;;;;;;5058095;28;20530;-83
2023/03/19 00:24:33;;;;;;;33.90;31.77;;;;;;;;;;5057748;28;20417;-83
2023/03/19 00:27:02;;;;;;;31.90;29.83;;;;;;;;;;5056464;28;20432;-83
2023/03/19 00:29:29;;;;;;;33.23;31.10;;;;;;;;;;5057556;28;20446;-83
2023/03/19 00:31:58;;;;;;;32.50;30.50;;;;;;;;;;5057661;28;20444;-83
2023/03/19 00:34:25;;;;;;;32.93;30.93;;;;;;;;;;5057023;28;20463;-83
2023/03/19 00:36:53;;;;;;;30.27;28.47;;;;;;;;;;5057380;28;20454;-83
2023/03/19 00:39:20;;;;;;;33.93;31.33;;;;;;;;;;5056884;28;20528;-84
2023/03/19 00:41:49;;;;;;;32.37;30.20;;;;;;;;;;5056126;28;20811;-83
2023/03/19 00:44:16;;;;;;;30.90;29.00;;;;;;;;;;5057366;28;20463;-83
2023/03/19 00:46:43;;;;;;;30.97;28.97;;;;;;;;;;5055809;28;20481;-83
2023/03/19 00:49:12;;;;;;;33.37;31.07;;;;;;;;;;5056261;28;20474;-83
2023/03/19 00:51:42;;;;;;;31.87;29.93;;;;;;;;;;5057221;28;20469;-83
2023/03/19 00:54:09;;;;;;;33.60;30.90;;;;;;;;;;5057518;28;20504;-83
2023/03/19 00:56:36;;;;;;;31.03;29.03;;;;;;;;;;5056541;28;20967;-84
2023/03/19 00:59:03;;;;;;;31.93;29.93;;;;;;;;;;5055985;28;20457;-84
2023/03/19 01:01:30;;;;;;;31.00;28.83;;;;;;;;;;5056692;28;20489;-83
2023/03/19 01:03:58;;;;;;;32.57;30.40;;;;;;;;;;5056602;28;20815;-84
2023/03/19 01:06:26;;;;;;;30.00;27.93;;;;;;;;;;5056406;28;20813;-83
2023/03/19 01:08:54;;;;;;;29.80;27.90;;;;;;;;;;5056571;28;20500;-84
2023/03/19 01:11:21;;;;;;;30.33;28.63;;;;;;;;;;5056294;28;20471;-83
2023/03/19 01:13:48;;;;;;;30.37;28.53;;;;;;;;;;5056937;28;20455;-83
2023/03/19 01:16:15;;;;;;;30.67;28.33;;;;;;;;;;5056758;28;20459;-83
2023/03/19 01:18:42;;;;;;;31.03;29.00;;;;;;;;;;5056825;28;20470;-83
2023/03/19 01:21:09;;;;;;;30.13;28.47;;;;;;;;;;5056948;28;20475;-83
2023/03/19 01:23:38;;;;;;;29.87;28.17;;;;;;;;;;5056320;28;20436;-83
2023/03/19 01:26:05;;;;;;;30.03;28.33;;;;;;;;;;5057005;28;20884;-83
2023/03/19 01:28:32;;;;;;;29.07;27.37;;;;;;;;;;5056325;28;20461;-83
2023/03/19 01:31:00;;;;;;;29.97;28.20;;;;;;;;;;5056148;28;20409;-83
2023/03/19 01:33:27;;;;;;;31.10;29.40;;;;;;;;;;5056190;28;20458;-83
2023/03/19 01:35:54;;;;;;;30.37;28.67;;;;;;;;;;5055449;28;20444;-83
2023/03/19 01:38:21;;;;;;;30.50;28.80;;;;;;;;;;5056244;28;20532;-83
2023/03/19 01:40:50;;;;;;;30.10;28.20;;;;;;;;;;5056772;28;20479;-83
2023/03/19 01:43:18;;;;;;;29.30;27.70;;;;;;;;;;5055841;28;20429;-83
2023/03/19 01:45:45;;;;;;;30.73;28.93;;;;;;;;;;5055395;28;20453;-83
2023/03/19 01:48:21;;;;;;;30.00;27.90;;;;;;;;;;5058969;28;20465;-83
2023/03/19 01:50:52;;;;;;;30.20;28.60;;;;;;;;;;5060436;28;20421;-83
2023/03/19 01:53:21;;;;;;;32.10;30.03;;;;;;;;;;5066972;28;20458;-83
2023/03/19 01:55:51;;;;;;;29.83;28.23;;;;;;;;;;5067195;28;20460;-83
2023/03/19 01:58:18;;;;;;;30.43;28.83;;;;;;;;;;5065307;28;20470;-84
2023/03/19 02:00:45;;;;;;;27.33;25.90;;;;;;;;;;5057426;28;20477;-84
2023/03/19 02:03:13;;;;;;;27.20;25.80;;;;;;;;;;5057196;28;20450;-83
2023/03/19 02:05:41;;;;;;;27.33;25.83;;;;;;;;;;5056749;28;20979;-84
2023/03/19 02:08:10;;;;;;;26.70;25.30;;;;;;;;;;5056741;28;20522;-83
2023/03/19 02:10:38;;;;;;;28.50;26.70;;;;;;;;;;5056774;28;20446;-83
2023/03/19 02:13:07;;;;;;;29.20;27.20;;;;;;;;;;5056649;28;20439;-83
2023/03/19 02:15:34;;;;;;;29.30;26.70;;;;;;;;;;5055726;28;20838;-84
2023/03/19 02:18:01;;;;;;;29.27;27.57;;;;;;;;;;5056404;28;20445;-83
2023/03/19 02:20:32;;;;;;;30.17;28.00;;;;;;;;;;5056938;28;20421;-83
2023/03/19 02:23:04;;;;;;;29.33;27.23;;;;;;;;;;5056437;28;20409;-83
2023/03/19 02:25:36;;;;;;;28.20;26.53;;;;;;;;;;5056500;28;20760;-82
2023/03/19 02:28:04;;;;;;;28.90;27.00;;;;;;;;;;5055914;28;20513;-83
2023/03/19 02:30:32;;;;;;;26.67;25.07;;;;;;;;;;5056367;28;20492;-84
2023/03/19 02:33:00;;;;;;;27.30;25.80;;;;;;;;;;5056420;28;20451;-83
2023/03/19 02:35:27;;;;;;;27.53;25.43;;;;;;;;;;5056234;28;20421;-83
2023/03/19 02:37:54;;;;;;;26.07;24.60;;;;;;;;;;5054761;28;20499;-84
2023/03/19 02:40:23;;;;;;;26.20;24.70;;;;;;;;;;5056246;28;20453;-84
2023/03/19 02:42:50;;;;;;;25.00;23.50;;;;;;;;;;5055922;28;20451;-83
2023/03/19 02:45:18;;;;;;;26.43;24.37;;;;;;;;;;5056216;28;20829;-83
2023/03/19 02:47:45;;;;;;;24.50;23.00;;;;;;;;;;5055550;28;20441;-83
2023/03/19 02:50:12;;;;;;;26.60;24.57;;;;;;;;;;5056144;28;20479;-83
2023/03/19 02:52:40;;;;;;;25.57;23.70;;;;;;;;;;5055360;28;20510;-84
2023/03/19 02:55:07;;;;;;;26.60;24.80;;;;;;;;;;5054380;28;20866;-83
2023/03/19 02:57:34;;;;;;;26.30;24.70;;;;;;;;;;5055178;28;20450;-84
2023/03/19 03:00:01;;;;;;;26.47;24.97;;;;;;;;;;5055568;28;20450;-83
2023/03/19 03:02:29;;;;;;;24.43;23.13;;;;;;;;;;5055769;28;20818;-82
2023/03/19 03:04:57;;;;;;;25.37;23.87;;;;;;;;;;5057641;28;20456;-83
2023/03/19 03:07:24;;;;;;;25.90;24.37;;;;;;;;;;5058898;28;20497;-82
2023/03/19 03:09:51;;;;;;;25.60;24.20;;;;;;;;;;5058507;28;20493;-83
2023/03/19 03:12:18;;;;;;;25.57;23.80;;;;;;;;;;5059639;28;20530;-83
2023/03/19 03:14:45;;;;;;;24.43;23.03;;;;;;;;;;5058646;28;20950;-82
2023/03/19 03:17:13;;;;;;;25.67;24.03;;;;;;;;;;5058449;28;20905;-83
2023/03/19 03:19:41;;;;;;;23.70;22.40;;;;;;;;;;5058947;28;20491;-82
2023/03/19 03:22:09;;;;;;;23.77;22.57;;;;;;;;;;5058399;28;20467;-82
2023/03/19 03:24:38;;;;;;;23.73;22.33;;;;;;;;;;5058523;28;20439;-82
2023/03/19 03:27:05;;;;;;;23.67;22.47;;;;;;;;;;5058356;28;20425;-83
2023/03/19 03:29:32;;;;;;;24.07;22.57;;;;;;;;;;5058234;28;20461;-83
2023/03/19 03:31:59;;;;;;;24.67;23.27;;;;;;;;;;5059109;28;20500;-83
2023/03/19 03:34:26;;;;;;;24.17;22.77;;;;;;;;;;5058240;28;20466;-83
2023/03/19 03:36:55;;;;;;;23.83;22.23;;;;;;;;;;5058453;28;20421;-83
2023/03/19 03:39:22;;;;;;;24.00;22.60;;;;;;;;;;5058219;28;20515;-83
2023/03/19 03:41:50;;;;;;;23.53;22.33;;;;;;;;;;5058534;28;20465;-83
2023/03/19 03:44:17;;;;;;;22.03;20.73;;;;;;;;;;5058075;28;20455;-83
2023/03/19 03:46:45;;;;;;;23.97;22.47;;;;;;;;;;5057919;28;20508;-83
2023/03/19 03:49:12;;;;;;;22.23;21.03;;;;;;;;;;5057802;28;20574;-83
2023/03/19 03:51:40;;;;;;;23.87;22.57;;;;;;;;;;5058393;28;20850;-83
2023/03/19 03:54:08;;;;;;;23.27;21.97;;;;;;;;;;5058487;28;20545;-83
2023/03/19 03:56:35;;;;;;;23.67;22.17;;;;;;;;;;5057981;28;20455;-83
2023/03/19 03:59:02;;;;;;;24.37;22.93;;;;;;;;;;5057280;28;20469;-83
2023/03/19 04:01:29;;;;;;;23.20;21.90;;;;;;;;;;5058337;28;20449;-83
2023/03/19 04:03:56;;;;;;;24.13;22.73;;;;;;;;;;5058625;28;20446;-83
2023/03/19 04:06:24;;;;;;;23.27;21.87;;;;;;;;;;5057690;28;20943;-83
2023/03/19 04:08:51;;;;;;;22.80;21.70;;;;;;;;;;5057736;28;20486;-83
2023/03/19 04:11:20;;;;;;;24.20;23.00;;;;;;;;;;5058286;28;20469;-83
2023/03/19 04:13:47;;;;;;;23.57;22.37;;;;;;;;;;5057915;28;20474;-83
2023/03/19 04:16:14;;;;;;;23.70;22.50;;;;;;;;;;5057004;28;20513;-84
2023/03/19 04:18:41;;;;;;;24.87;23.30;;;;;;;;;;5057360;28;20471;-83
2023/03/19 04:21:08;;;;;;;24.90;22.90;;;;;;;;;;5057898;28;20939;-83
2023/03/19 04:23:35;;;;;;;23.20;21.90;;;;;;;;;;5057659;28;20796;-83
2023/03/19 04:26:03;;;;;;;24.50;23.20;;;;;;;;;;5057110;28;20416;-83
2023/03/19 04:28:31;;;;;;;23.17;21.97;;;;;;;;;;5057049;28;20486;-83
2023/03/19 04:30:59;;;;;;;24.57;23.07;;;;;;;;;;5058010;28;20486;-83
2023/03/19 04:33:26;;;;;;;23.40;22.10;;;;;;;;;;5058170;28;20507;-83
2023/03/19 04:35:54;;;;;;;22.67;21.30;;;;;;;;;;5056889;28;20913;-83
2023/03/19 04:38:21;;;;;;;24.10;22.80;;;;;;;;;;5057531;28;20449;-83
2023/03/19 04:40:48;;;;;;;23.67;22.17;;;;;;;;;;5056883;28;20449;-83
2023/03/19 04:43:16;;;;;;;21.87;20.77;;;;;;;;;;5057506;28;20819;-83
2023/03/19 04:45:45;;;;;;;23.77;22.40;;;;;;;;;;5057008;28;20453;-83
2023/03/19 04:48:12;;;;;;;24.17;22.50;;;;;;;;;;5056868;28;20484;-83
2023/03/19 04:50:39;;;;;;;24.67;23.37;;;;;;;;;;5056545;28;20503;-84
2023/03/19 04:53:06;;;;;;;23.50;22.20;;;;;;;;;;5057729;28;20454;-83
2023/03/19 04:55:33;;;;;;;22.50;21.20;;;;;;;;;;5056471;28;20458;-82
2023/03/19 04:58:01;;;;;;;23.50;22.40;;;;;;;;;;5056919;28;20485;-83
2023/03/19 05:00:29;;;;;;;22.50;21.40;;;;;;;;;;5057384;28;20485;-83
2023/03/19 05:02:57;;;;;;;22.50;21.30;;;;;;;;;;5056506;28;20455;-83
2023/03/19 05:05:24;;;;;;;23.70;22.43;;;;;;;;;;5057533;28;20493;-82
2023/03/19 05:07:51;;;;;;;23.73;22.63;;;;;;;;;;5056585;28;20470;-83
2023/03/19 05:10:18;;;;;;;21.93;20.90;;;;;;;;;;5057204;28;20482;-83
2023/03/19 05:12:45;;;;;;;25.90;24.30;;;;;;;;;;5057540;28;20451;-83
2023/03/19 05:15:12;;;;;;;25.73;24.20;;;;;;;;;;5057202;28;20451;-83
2023/03/19 05:17:40;;;;;;;24.37;22.87;;;;;;;;;;5054950;28;20529;-83
2023/03/19 05:20:10;;;;;;;24.10;22.80;;;;;;;;;;5056712;28;20481;-83
2023/03/19 05:22:37;;;;;;;24.53;23.00;;;;;;;;;;5056279;28;20791;-83
2023/03/19 05:25:05;;;;;;;26.07;24.57;;;;;;;;;;5056713;28;20417;-83
2023/03/19 05:27:32;;;;;;;23.43;22.13;;;;;;;;;;5055619;28;20428;-84
2023/03/19 05:30:00;;;;;;;24.50;23.00;;;;;;;;;;5055429;28;20494;-83
2023/03/19 05:32:27;;;;;;;23.63;22.33;;;;;;;;;;5056616;28;20509;-83
2023/03/19 05:34:54;;;;;;;24.17;22.87;;;;;;;;;;5056412;28;20455;-83
2023/03/19 05:37:22;;;;;;;25.30;23.90;;;;;;;;;;5055605;28;20460;-83
2023/03/19 05:39:49;;;;;;;24.67;23.37;;;;;;;;;;5056231;28;20845;-82
2023/03/19 05:42:16;;;;;;;24.07;22.87;;;;;;;;;;5055893;28;20481;-82
2023/03/19 05:44:43;;;;;;;23.50;22.30;;;;;;;;;;5056282;28;20827;-82
2023/03/19 05:47:11;;;;;;;22.60;21.30;;;;;;;;;;5056370;28;20455;-82
2023/03/19 05:49:38;;;;;;;23.03;21.83;;;;;;;;;;5056046;28;20486;-82
2023/03/19 05:52:05;;;;;;;23.00;21.80;;;;;;;;;;5056315;28;21009;-82
2023/03/19 05:54:33;;;;;;;23.67;22.37;;;;;;;;;;5055729;28;20449;-82
2023/03/19 05:57:01;;;;;;;25.27;23.57;;;;;;;;;;5055866;28;20442;-82
2023/03/19 05:59:28;;;;;;;24.07;22.67;;;;;;;;;;5056004;28;20465;-81
2023/03/19 06:01:55;;;;;;;25.10;23.70;;;;;;;;;;5056825;28;20451;-82
2023/03/19 06:04:22;;;;;;;24.37;22.70;;;;;;;;;;5059911;28;20532;-82
2023/03/19 06:06:49;;;;;;;23.73;22.03;;;;;;;;;;5058742;28;20483;-82
2023/03/19 06:09:16;;;;;;;23.60;22.50;;;;;;;;;;5059342;28;20833;-82
2023/03/19 06:11:44;;;;;;;22.97;21.77;;;;;;;;;;5059122;28;20480;-82
2023/03/19 06:14:11;;;;;;;23.93;22.53;;;;;;;;;;5058577;28;20467;-82
2023/03/19 06:16:38;;;;;;;22.23;20.77;;;;;;;;;;5058299;28;20429;-82
2023/03/19 06:19:06;;;;;;;20.97;19.73;;;;;;;;;;5058534;28;20524;-82
2023/03/19 06:21:33;;;;;;;23.03;21.63;;;;;;;;;;5063945;28;20430;-81
2023/03/19 06:24:00;;;;;;;22.13;20.93;;;;;;;;;;5073506;28;20436;-82
2023/03/19 06:26:27;;;;;;;22.00;20.60;;;;;;;;;;5074464;28;20454;-81
2023/03/19 06:28:55;;;;;;;21.33;20.23;;;;;;;;;;5061319;28;20489;-82
2023/03/19 06:31:22;;;;;;;21.83;20.53;;;;;;;;;;5057552;28;20421;-82
2023/03/19 06:33:50;;;;;;;22.43;20.83;;;;;;;;;;5057309;28;20405;-82
2023/03/19 06:36:17;;;;;;;22.07;20.87;;;;;;;;;;5056323;28;20435;-82
2023/03/19 06:38:44;;;;;;;22.70;21.50;;;;;;;;;;5057024;28;20451;-82
2023/03/19 06:41:11;;;;;;;23.07;21.67;;;;;;;;;;5060898;28;20481;-82
2023/03/19 06:43:40;;;;;;;21.80;20.60;;;;;;;;;;5060136;28;20479;-82
2023/03/19 06:46:09;;;;;;;22.80;21.00;;;;;;;;;;5060342;28;20493;-82
2023/03/19 06:48:36;;;;;;;22.10;20.90;;;;;;;;;;5060124;28;20448;-82
2023/03/19 06:51:04;;;;;;;22.13;20.83;;;;;;;;;;5060325;28;20481;-82
2023/03/19 06:53:31;;;;;;;23.80;22.30;;;;;;;;;;5060203;28;20450;-82
2023/03/19 06:55:58;;;;;;;22.40;21.10;;;;;;;;;;5059663;28;20432;-82
2023/03/19 06:58:25;;;;;;;21.07;19.87;;;;;;;;;;5059414;28;20453;-81
2023/03/19 07:00:53;;;;;;;22.20;21.00;;;;;;;;;;5059979;28;20429;-82
2023/03/19 07:03:21;;;;;;;20.73;19.40;;;;;;;;;;5059922;28;20417;-82
2023/03/19 07:05:49;;;;;;;20.43;19.23;;;;;;;;;;5059323;28;20425;-82
2023/03/19 07:08:16;;;;;;;21.07;19.80;;;;;;;;;;5059742;28;20997;-82
2023/03/19 07:10:43;;;;;;;20.90;19.90;;;;;;;;;;5059158;28;20469;-82
2023/03/19 07:13:10;;;;;;;21.23;19.90;;;;;;;;;;5060180;28;21021;-82
2023/03/19 07:15:37;;;;;;;22.43;21.23;;;;;;;;;;5058766;28;20414;-82
2023/03/19 07:18:05;;;;;;;22.37;21.27;;;;;;;;;;5059227;28;20504;-82
2023/03/19 07:20:33;;;;;;;22.77;21.57;;;;;;;;;;5059947;28;20474;-82
2023/03/19 07:23:00;;;;;;;21.33;20.20;;;;;;;;;;5059426;28;20432;-82
2023/03/19 07:25:27;;;;;;;22.17;20.93;;;;;;;;;;5059128;28;20935;-82
2023/03/19 07:27:55;;;;;;;20.60;19.50;;;;;;;;;;5059230;28;20524;-82
2023/03/19 07:30:22;;;;;;;22.17;20.77;;;;;;;;;;5058735;28;20481;-82
2023/03/19 07:32:49;;;;;;;22.00;20.70;;;;;;;;;;5059018;28;20459;-82
2023/03/19 07:35:16;;;;;;;20.03;18.93;;;;;;;;;;5058630;28;20447;-82
2023/03/19 07:37:44;;;;;;;21.53;20.20;;;;;;;;;;5057704;28;20441;-82
2023/03/19 07:40:12;;;;;;;20.63;19.63;;;;;;;;;;5058735;28;20447;-82
2023/03/19 07:42:39;;;;;;;20.27;19.17;;;;;;;;;;5058763;28;20454;-82
2023/03/19 07:45:07;;;;;;;20.10;18.90;;;;;;;;;;5059225;28;20486;-82
2023/03/19 07:47:34;;;;;;;20.27;19.33;;;;;;;;;;5057169;28;20429;-82
2023/03/19 07:50:01;;;;;;;19.77;18.67;;;;;;;;;;5058485;28;20457;-82
2023/03/19 07:52:28;;;;;;;19.20;18.10;;;;;;;;;;5056210;28;20481;-82
2023/03/19 07:54:56;;;;;;;19.67;18.63;;;;;;;;;;5056131;28;20450;-82
2023/03/19 07:57:24;;;;;;;19.23;18.23;;;;;;;;;;5055836;28;20422;-82
2023/03/19 07:59:51;;;;;;;20.00;18.90;;;;;;;;;;5056878;28;20516;-82
2023/03/19 08:02:18;;;;;;;19.77;18.67;;;;;;;;;;5056686;28;20436;-82
2023/03/19 08:04:46;;;;;;;20.10;19.07;;;;;;;;;;5056034;28;20512;-82
2023/03/19 08:07:13;;;;;;;21.50;20.30;;;;;;;;;;5055868;28;20429;-82
2023/03/19 08:09:40;;;;;;;19.80;18.80;;;;;;;;;;5055266;28;20508;-82
2023/03/19 08:12:09;;;;;;;21.57;20.30;;;;;;;;;;5056107;28;20454;-82
2023/03/19 08:14:36;;;;;;;21.83;20.60;;;;;;;;;;5055544;28;20448;-82
2023/03/19 08:17:03;;;;;;;22.50;20.90;;;;;;;;;;5055468;28;20429;-82
2023/03/19 08:19:30;;;;;;;21.77;20.10;;;;;;;;;;5055160;28;20495;-82
2023/03/19 08:21:57;;;;;;;20.70;19.50;;;;;;;;;;5056040;28;20431;-81
2023/03/19 08:24:24;;;;;;;21.87;20.37;;;;;;;;;;5055766;28;20447;-82
2023/03/19 08:26:52;;;;;;;20.47;19.17;;;;;;;;;;5054794;28;20508;-82
2023/03/19 08:29:20;;;;;;;21.70;20.50;;;;;;;;;;5055395;28;20491;-82
2023/03/19 08:31:47;;;;;;;21.53;20.43;;;;;;;;;;5055349;28;20468;-82
2023/03/19 08:34:15;;;;;;;20.73;19.63;;;;;;;;;;5055577;28;20421;-82
2023/03/19 08:36:42;;;;;;;21.47;20.37;;;;;;;;;;5054698;28;20489;-83
2023/03/19 08:39:09;;;;;;;20.30;19.30;;;;;;;;;;5055190;28;20566;-82
2023/03/19 08:41:36;;;;;;;21.50;20.30;;;;;;;;;;5055506;28;20421;-82
2023/03/19 08:44:03;;;;;;;21.87;20.67;;;;;;;;;;5055401;28;20955;-82
2023/03/19 08:46:32;;;;;;;21.80;20.70;;;;;;;;;;5054537;28;20880;-82
2023/03/19 08:48:59;;;;;;;20.87;19.50;;;;;;;;;;5055452;28;20542;-81
2023/03/19 08:51:27;;;;;;;21.67;20.37;;;;;;;;;;5055408;28;20457;-82
2023/03/19 08:53:54;;;;;;;21.00;19.80;;;;;;;;;;5055366;28;20512;-81
2023/03/19 08:56:21;;;;;;;20.70;19.60;;;;;;;;;;5054714;28;20429;-81
2023/03/19 08:58:49;;;;;;;20.70;19.60;;;;;;;;;;5054563;28;20458;-81
2023/03/19 09:01:16;;;;;;;21.50;20.50;;;;;;;;;;5054660;28;20844;-82
2023/03/19 09:03:45;;;;;;;21.37;20.37;;;;;;;;;;5054889;28;20504;-82
2023/03/19 09:06:13;;;;;;;21.37;20.33;;;;;;;;;;5054764;28;20455;-82
2023/03/19 09:08:40;;;;;;;21.63;20.33;;;;;;;;;;5054441;28;20490;-79
2023/03/19 09:11:07;;;;;;;21.80;20.70;;;;;;;;;;5054971;28;20513;-82
2023/03/19 09:13:34;;;;;;;22.00;20.77;;;;;;;;;;5054589;28;20416;-81
2023/03/19 09:16:01;;;;;;;21.40;20.37;;;;;;;;;;5054557;28;20443;-82
2023/03/19 09:18:28;;;;;;;22.20;20.60;;;;;;;;;;5054032;28;20457;-82
2023/03/19 09:20:57;;;;;;;19.60;18.77;;;;;;;;;;5055141;28;20455;-81
2023/03/19 09:23:24;;;;;;;20.70;19.70;;;;;;;;;;5054887;28;20425;-82
2023/03/19 09:25:51;;;;;;;22.77;21.67;;;;;;;;;;5054280;28;20923;-82
2023/03/19 09:28:18;;;;;;;21.73;20.63;;;;;;;;;;5054367;28;20461;-82
2023/03/19 09:30:46;;;;;;;23.17;21.97;;;;;;;;;;5054910;28;20470;-81
2023/03/19 09:33:14;;;;;;;22.53;21.03;;;;;;;;;;5054987;28;20449;-82
2023/03/19 09:35:41;;;;;;;21.80;20.67;;;;;;;;;;5054580;28;20471;-82
2023/03/19 09:38:09;;;;;;;20.73;19.63;;;;;;;;;;5054823;28;20528;-82
2023/03/19 09:40:38;;;;;;;22.17;21.07;;;;;;;;;;5054032;28;20474;-81
2023/03/19 09:43:10;;;;;;;22.13;20.90;;;;;;;;;;5054582;28;20459;-81
2023/03/19 09:45:38;;;;;;;21.77;20.57;;;;;;;;;;5054629;28;20443;-81
2023/03/19 09:48:06;;;;;;;22.90;21.53;;;;;;;;;;5054875;28;20516;-81
2023/03/19 09:50:35;;;;;;;23.07;21.67;;;;;;;;;;5055719;28;20494;-82
2023/03/19 09:53:05;;;;;;;22.50;21.30;;;;;;;;;;5055806;28;20540;-82
2023/03/19 09:55:40;;;;;;;22.20;20.63;;;;;;;;;;5055315;28;20483;-83
2023/03/19 09:58:11;;;;;;;23.03;21.73;;;;;;;;;;5055013;28;20794;-81
2023/03/19 10:00:39;;;;;;;23.50;21.80;;;;;;;;;;5054924;28;20455;-81
2023/03/19 10:03:11;;;;;;;22.23;21.03;;;;;;;;;;5055086;28;20493;-82
2023/03/19 10:05:45;;;;;;;21.50;20.40;;;;;;;;;;5054224;28;20448;-82
2023/03/19 10:08:19;;;;;;;21.97;20.73;;;;;;;;;;5054677;28;20532;-82
2023/03/19 10:10:50;;;;;;;24.00;22.10;;;;;;;;;;5055030;28;20473;-82
2023/03/19 10:13:23;;;;;;;21.90;20.60;;;;;;;;;;5054848;28;20485;-82
2023/03/19 10:15:51;;;;;;;23.77;22.27;;;;;;;;;;5053697;28;20441;-82
2023/03/19 10:18:20;;;;;;;22.00;20.80;;;;;;;;;;5054826;28;20450;-82
2023/03/19 10:20:50;;;;;;;23.63;22.00;;;;;;;;;;5056223;28;20823;-82
2023/03/19 10:23:33;;;;;;;24.37;22.83;;;;;;;;;;5060087;28;20435;-82
2023/03/19 10:26:03;;;;;;;24.17;22.77;;;;;;;;;;5057773;28;20438;-81
2023/03/19 10:28:30;;;;;;;23.90;22.50;;;;;;;;;;5056046;28;20478;-83
2023/03/19 10:31:02;;;;;;;25.63;24.03;;;;;;;;;;5054936;28;20482;-83
2023/03/19 10:33:35;;;;;;;24.50;23.00;;;;;;;;;;5054033;28;20439;-82
2023/03/19 10:36:03;;;;;;;23.57;22.20;;;;;;;;;;5067404;28;20441;-83
2023/03/19 10:38:32;;;;;;;23.33;21.83;;;;;;;;;;5075108;28;20538;-83
2023/03/19 10:41:16;;;;;;;25.13;23.70;;;;;;;;;;5074185;28;20469;-83
2023/03/19 10:43:47;;;;;;;25.80;24.40;;;;;;;;;;5075093;28;20954;-83
2023/03/19 10:46:14;;;;;;;24.70;23.30;;;;;;;;;;5074463;28;20438;-83
2023/03/19 10:48:44;;;;;;;25.40;23.83;;;;;;;;;;5074466;28;20879;-83
2023/03/19 10:51:13;;;;;;;25.90;24.40;;;;;;;;;;5075059;28;20524;-83
2023/03/19 10:53:41;;;;;;;24.10;22.80;;;;;;;;;;5074246;28;20494;-83
2023/03/19 10:56:17;;;;;;;24.80;23.30;;;;;;;;;;5078509;28;20435;-83
2023/03/19 10:58:56;;;;;;;23.70;22.40;;;;;;;;;;5085762;28;20560;-83
2023/03/19 11:01:27;;;;;;;24.90;23.47;;;;;;;;;;5085728;28;20431;-83
2023/03/19 11:03:56;;;;;;;27.00;25.40;;;;;;;;;;5079265;28;20490;-83
2023/03/19 11:06:26;;;;;;;27.70;25.80;;;;;;;;;;5077239;28;20404;-83
2023/03/19 11:08:56;;;;;;;26.87;25.37;;;;;;;;;;5077992;28;20444;-83
2023/03/19 11:11:25;;;;;;;26.40;24.53;;;;;;;;;;5078685;28;20459;-83
2023/03/19 11:13:52;;;;;;;26.27;24.77;;;;;;;;;;5078828;28;20488;-87
2023/03/19 11:16:19;;;;;;;25.07;23.67;;;;;;;;;;5076936;28;20520;-83
2023/03/19 11:18:49;;;;;;;25.03;23.50;;;;;;;;;;5079238;28;20470;-83
2023/03/19 11:21:23;;;;;;;23.17;21.97;;;;;;;;;;5079635;28;20446;-83
2023/03/19 11:23:52;;;;;;;23.30;22.00;;;;;;;;;;5078683;28;20434;-83
2023/03/19 11:26:20;;;;;;;22.60;21.40;;;;;;;;;;5080556;28;20474;-83
2023/03/19 11:28:50;;;;;;;22.37;20.97;;;;;;;;;;5081479;28;20893;-83
2023/03/19 11:31:21;;;;;;;22.10;20.90;;;;;;;;;;5081281;28;20459;-84
2023/03/19 11:33:52;;;;;;;23.27;21.70;;;;;;;;;;5081997;28;20498;-84
2023/03/19 11:36:22;;;;;;;22.73;21.50;;;;;;;;;;5080427;28;20425;-83
2023/03/19 11:38:57;;;;;;;21.70;20.50;;;;;;;;;;5082044;28;20476;-83
2023/03/19 11:41:28;;;;;;;22.47;21.07;;;;;;;;;;5082640;28;20440;-83
2023/03/19 11:43:58;;;;;;;23.40;22.10;;;;;;;;;;5081515;28;20474;-83
2023/03/19 11:46:33;;;;;;;22.50;21.23;;;;;;;;;;5080934;28;20507;-83
2023/03/19 11:49:17;;;;;;;23.17;21.87;;;;;;;;;;5081736;28;20440;-83
2023/03/19 11:51:47;;;;;;;24.00;22.70;;;;;;;;;;5081951;28;20523;-83
2023/03/19 11:54:19;;;;;;;24.13;22.83;;;;;;;;;;5081153;28;20469;-83
2023/03/19 11:56:48;;;;;;;24.77;23.37;;;;;;;;;;5080460;28;20498;-84
2023/03/19 11:59:29;;;;;;;23.70;22.30;;;;;;;;;;5070299;28;20481;-87
2023/03/19 12:02:10;;;;;;;22.17;20.87;;;;;;;;;;5064333;28;20421;-87
2023/03/19 12:04:46;;;;;;;22.03;20.93;;;;;;;;;;5062658;28;20526;-84
2023/03/19 12:07:19;;;;;;;23.00;21.70;;;;;;;;;;5062411;28;20445;-85
2023/03/19 12:09:49;;;;;;;21.43;20.33;;;;;;;;;;5062732;28;20448;-84
2023/03/19 12:12:20;;;;;;;22.10;20.90;;;;;;;;;;5065072;28;20465;-84
2023/03/19 12:14:54;;;;;;;21.80;20.70;;;;;;;;;;5064855;28;20449;-83
2023/03/19 12:17:30;;;;;;;21.70;20.50;;;;;;;;;;5061564;28;21407;-83
2023/03/19 12:20:10;;;;;;;23.10;21.90;;;;;;;;;;5064781;28;20441;-86
2023/03/19 12:22:45;;;;;;;22.67;21.30;;;;;;;;;;5064449;28;20454;-84
2023/03/19 12:25:21;;;;;;;23.43;21.93;;;;;;;;;;5062252;28;21004;-87
2023/03/19 12:27:53;;;;;;;22.70;21.50;;;;;;;;;;5061901;28;20492;-86
2023/03/19 12:30:25;;;;;;;26.67;24.90;;;;;;;;;;5061992;28;20435;-85
2023/03/19 12:33:00;;;;;;;24.10;22.80;;;;;;;;;;5058326;28;20441;-86
2023/03/19 12:35:30;;;;;;;25.47;24.00;;;;;;;;;;5057827;28;21007;-87
2023/03/19 12:37:58;;;;;;;25.50;24.10;;;;;;;;;;5062040;28;20449;-88
2023/03/19 12:40:28;;;;;;;26.97;25.47;;;;;;;;;;5061048;28;20767;-81
2023/03/19 12:42:57;;;;;;;26.83;25.30;;;;;;;;;;5058758;28;20429;-81
2023/03/19 12:45:29;;;;;;;27.00;25.40;;;;;;;;;;5057509;28;20478;-81
2023/03/19 12:48:01;;;;;;;26.70;25.10;;;;;;;;;;5057103;28;20540;-81
2023/03/19 12:50:28;;;;;;;27.50;25.80;;;;;;;;;;5057161;28;20516;-82
2023/03/19 12:52:57;;;;;;;29.50;27.70;;;;;;;;;;5060194;28;20466;-83
2023/03/19 12:55:27;;;;;;;30.37;28.13;;;;;;;;;;5060218;28;20446;-81
2023/03/19 12:57:57;;;;;;;30.10;28.27;;;;;;;;;;5058737;28;20462;-82
2023/03/19 13:00:30;;;;;;;31.83;29.90;;;;;;;;;;5058618;28;20496;-81
2023/03/19 13:03:00;;;;;;;34.33;32.23;;;;;;;;;;5058060;28;20435;-82
2023/03/19 13:05:30;;;;;;;32.67;30.33;;;;;;;;;;5058252;28;20876;-80
2023/03/19 13:08:00;;;;;;;32.37;30.30;;;;;;;;;;5058372;28;20497;-81
2023/03/19 13:10:27;;;;;;;33.97;31.43;;;;;;;;;;5058529;28;20447;-79
2023/03/19 13:12:54;;;;;;;33.10;30.87;;;;;;;;;;5058416;28;20484;-82
2023/03/19 13:15:24;;;;;;;31.57;29.47;;;;;;;;;;5058849;28;20477;-81
2023/03/19 13:17:57;;;;;;;31.80;29.90;;;;;;;;;;5057306;28;20486;-81
2023/03/19 13:20:26;;;;;;;34.40;32.30;;;;;;;;;;5058389;28;20425;-81
2023/03/19 13:22:56;;;;;;;31.93;29.90;;;;;;;;;;5057957;28;20421;-79
2023/03/19 13:25:24;;;;;;;30.60;28.70;;;;;;;;;;5058268;28;20886;-80
2023/03/19 13:27:53;;;;;;;30.53;28.63;;;;;;;;;;5058099;28;20449;-80
2023/03/19 13:30:21;;;;;;;31.10;29.27;;;;;;;;;;5058893;28;20490;-79
2023/03/19 13:32:49;;;;;;;29.57;27.73;;;;;;;;;;5059039;28;20489;-80
2023/03/19 13:35:29;;;;;;;29.20;27.40;;;;;;;;;;5057928;28;20443;-81
2023/03/19 13:37:57;;;;;;;30.57;28.53;;;;;;;;;;5058026;28;20441;-80
2023/03/19 13:40:37;;;;;;;30.73;28.83;;;;;;;;;;5058670;28;20549;-81
2023/03/19 13:43:05;;;;;;;29.17;27.47;;;;;;;;;;5055662;28;20450;-80
2023/03/19 13:45:35;;;;;;;30.40;28.17;;;;;;;;;;5057074;28;20518;-81
2023/03/19 13:48:17;;;;;;;29.30;27.30;;;;;;;;;;5055414;28;20536;-81
2023/03/19 13:50:55;;;;;;;28.60;26.93;;;;;;;;;;5055606;28;20554;-80
2023/03/19 13:53:32;;;;;;;28.73;27.03;;;;;;;;;;5061983;28;20481;-80
2023/03/19 13:56:00;;;;;;;31.83;29.80;;;;;;;;;;5075989;28;20421;-80
2023/03/19 14:01:35;;;;;;;31.80;29.70;;;;;;;;;;5075244;28;20431;-80
2023/03/19 14:04:03;;;;;;;34.20;31.70;;;;;;;;;;5075921;28;20446;-80
2023/03/19 14:06:33;;;;;;;31.97;29.87;;;;;;;;;;5075343;28;20449;-80
2023/03/19 14:09:01;;;;;;;34.03;31.70;;;;;;;;;;5075197;28;20474;-80
2023/03/19 14:11:30;;;;;;;33.37;31.17;;;;;;;;;;5075048;28;20486;-80
2023/03/19 14:14:00;;;;;;;31.00;29.00;;;;;;;;;;5074534;28;20479;-80
2023/03/19 14:16:31;;;;;;;29.17;27.27;;;;;;;;;;5075181;28;20516;-80
2023/03/19 14:19:00;;;;;;;29.50;27.50;;;;;;;;;;5075536;28;20863;-80
2023/03/19 14:21:40;;;;;;;29.20;27.30;;;;;;;;;;5075795;28;20431;-80
2023/03/19 14:24:21;;;;;;;28.87;27.10;;;;;;;;;;5076093;28;20484;-80
2023/03/19 14:26:48;;;;;;;29.20;27.40;;;;;;;;;;5075306;28;20825;-80
2023/03/19 14:29:17;;;;;;;33.43;31.13;;;;;;;;;;5075318;28;20477;-80